Time;durP1;ratioP1;P1;durP2;ratioP2;P2;SDS_P1;SDS_P2;PMS_P1;PMS_P2;Temp;Humidity;BMP_temperature;BMP_pressure;BME280_temperature;BME280_humidity;BME280_pressure;Samples;Min_cycle;Max_cycle;Signal;HPM_P1;HPM_P2
2022/07/06 00:01:44;;;;;;;3.67;1.30;;;17.30;88.10;;;;;;5090774;28;20373;-86
2022/07/06 00:04:10;;;;;;;3.13;1.13;;;17.30;88.30;;;;;;5089365;28;20032;-86
2022/07/06 00:06:35;;;;;;;2.10;1.00;;;17.20;88.60;;;;;;5090635;28;20028;-86
2022/07/06 00:09:02;;;;;;;3.25;1.25;;;17.20;88.60;;;;;;5089219;28;20055;-86
2022/07/06 00:11:30;;;;;;;2.80;1.15;;;17.20;88.70;;;;;;5090606;28;20487;-86
2022/07/06 00:13:56;;;;;;;1.47;1.00;;;17.20;89.00;;;;;;5089171;28;20047;-86
2022/07/06 00:16:23;;;;;;;4.45;1.33;;;17.20;88.70;;;;;;5090328;28;20032;-86
2022/07/06 00:18:49;;;;;;;3.97;0.98;;;17.20;88.70;;;;;;5089033;28;20024;-86
2022/07/06 00:21:15;;;;;;;3.50;1.00;;;17.10;88.80;;;;;;5089090;28;20035;-85
2022/07/06 00:23:41;;;;;;;3.13;1.10;;;17.10;89.10;;;;;;5090405;28;20085;-86
2022/07/06 00:26:07;;;;;;;4.93;1.25;;;17.10;89.20;;;;;;5088875;28;20028;-85
2022/07/06 00:28:33;;;;;;;2.85;0.93;;;17.10;89.20;;;;;;5072108;28;20036;-85
2022/07/06 00:30:59;;;;;;;1.50;0.90;;;17.10;89.40;;;;;;5088940;28;20411;-85
2022/07/06 00:33:25;;;;;;;3.95;1.05;;;17.00;89.40;;;;;;5090310;28;20122;-85
2022/07/06 00:35:51;;;;;;;2.65;1.00;;;17.10;89.20;;;;;;5090175;28;20028;-85
2022/07/06 00:38:17;;;;;;;3.70;1.55;;;17.00;89.20;;;;;;5091463;28;20020;-85
2022/07/06 00:40:43;;;;;;;2.85;1.05;;;17.00;89.40;;;;;;5092458;28;20039;-86
2022/07/06 00:43:08;;;;;;;3.00;0.75;;;17.00;89.60;;;;;;5093733;28;20403;-86
2022/07/06 00:45:34;;;;;;;3.38;1.33;;;17.00;89.60;;;;;;5093923;28;20508;-85
2022/07/06 00:48:00;;;;;;;4.40;1.63;;;17.00;90.10;;;;;;5075902;28;20374;-86
2022/07/06 00:50:28;;;;;;;2.95;1.10;;;17.00;89.40;;;;;;5075346;28;20067;-86
2022/07/06 00:52:54;;;;;;;2.95;1.10;;;17.00;89.50;;;;;;5075773;28;20074;-85
2022/07/06 00:55:27;;;;;;;4.03;1.33;;;17.00;89.40;;;;;;5092473;28;20016;-86
2022/07/06 00:57:53;;;;;;;2.92;1.02;;;16.90;89.40;;;;;;5092088;28;20024;-86
2022/07/06 01:00:22;;;;;;;2.72;1.30;;;16.90;89.40;;;;;;5093513;28;20024;-85
2022/07/06 01:02:49;;;;;;;5.00;1.15;;;16.80;89.50;;;;;;5075594;28;20438;-85
2022/07/06 01:05:16;;;;;;;5.65;3.00;;;16.80;89.70;;;;;;5092313;28;20064;-85
2022/07/06 01:07:44;;;;;;;5.82;2.67;;;16.80;89.70;;;;;;5075285;28;20032;-85
2022/07/06 01:10:12;;;;;;;5.35;2.90;;;16.80;89.80;;;;;;5093276;28;20091;-85
2022/07/06 01:12:40;;;;;;;5.70;2.08;;;16.80;89.90;;;;;;5091963;28;20024;-86
2022/07/06 01:15:18;;;;;;;3.50;1.50;;;16.80;90.00;;;;;;5075185;28;20027;-86
2022/07/06 01:17:44;;;;;;;4.47;2.05;;;16.80;90.00;;;;;;5092002;28;20054;-85
2022/07/06 01:20:18;;;;;;;4.80;1.60;;;16.70;90.10;;;;;;5074973;28;20060;-85
2022/07/06 01:22:46;;;;;;;4.97;1.90;;;16.70;90.20;;;;;;5091887;28;20039;-85
2022/07/06 01:25:13;;;;;;;4.75;1.90;;;16.70;90.20;;;;;;5075202;28;20031;-85
2022/07/06 01:27:40;;;;;;;5.43;1.90;;;16.70;90.30;;;;;;5074693;28;20035;-84
2022/07/06 01:30:12;;;;;;;6.07;2.20;;;16.70;90.30;;;;;;5091465;28;20028;-85
2022/07/06 01:32:38;;;;;;;5.03;2.13;;;16.70;90.20;;;;;;5092996;28;20028;-85
2022/07/06 01:35:06;;;;;;;5.38;1.80;;;16.70;90.20;;;;;;5091898;28;20085;-84
2022/07/06 01:37:33;;;;;;;3.83;1.80;;;16.70;90.30;;;;;;5074612;28;20024;-86
2022/07/06 01:39:59;;;;;;;5.88;2.05;;;16.70;90.40;;;;;;5091501;28;20058;-85
2022/07/06 01:42:26;;;;;;;4.03;1.90;;;16.70;90.30;;;;;;5074684;28;20384;-85
2022/07/06 01:44:52;;;;;;;4.60;2.05;;;16.70;90.40;;;;;;5091526;28;20061;-85
2022/07/06 01:47:19;;;;;;;3.75;1.83;;;16.70;90.40;;;;;;5091275;28;20027;-86
2022/07/06 01:49:46;;;;;;;4.25;2.05;;;16.60;90.60;;;;;;5074398;28;20541;-85
2022/07/06 01:52:24;;;;;;;4.70;1.95;;;16.60;90.50;;;;;;5091115;28;20032;-86
2022/07/06 01:54:50;;;;;;;4.85;2.20;;;16.60;90.50;;;;;;5091243;28;20028;-85
2022/07/06 01:57:16;;;;;;;5.80;2.00;;;16.60;90.60;;;;;;5092413;28;20016;-85
2022/07/06 01:59:42;;;;;;;4.22;2.00;;;16.50;90.70;;;;;;5091131;28;20032;-85
2022/07/06 02:02:08;;;;;;;6.68;1.92;;;16.50;90.80;;;;;;5091160;28;20536;-85
2022/07/06 02:04:34;;;;;;;5.65;2.20;;;16.50;90.90;;;;;;5091039;28;20056;-85
2022/07/06 02:07:01;;;;;;;7.40;2.13;;;16.50;90.90;;;;;;5091167;28;20032;-85
2022/07/06 02:09:27;;;;;;;8.18;2.33;;;16.50;90.90;;;;;;5074382;28;20032;-85
2022/07/06 02:11:53;;;;;;;4.13;2.03;;;16.50;91.00;;;;;;5090760;28;20099;-85
2022/07/06 02:14:19;;;;;;;4.00;1.88;;;16.50;91.00;;;;;;5074037;28;20493;-85
2022/07/06 02:16:47;;;;;;;5.60;2.47;;;16.50;91.20;;;;;;5074130;28;20034;-85
2022/07/06 02:19:17;;;;;;;5.70;2.10;;;16.50;91.20;;;;;;5090420;28;20039;-86
2022/07/06 02:21:44;;;;;;;5.13;2.50;;;16.50;91.30;;;;;;5090668;28;20063;-85
2022/07/06 02:24:12;;;;;;;8.40;4.72;;;16.50;91.30;;;;;;5073932;28;20093;-85
2022/07/06 02:26:39;;;;;;;7.40;3.05;;;16.40;91.40;;;;;;5090456;28;20642;-85
2022/07/06 02:29:05;;;;;;;5.95;2.60;;;16.40;91.40;;;;;;5090586;28;20050;-85
2022/07/06 02:31:31;;;;;;;4.38;1.80;;;16.40;91.50;;;;;;5090400;28;20681;-85
2022/07/06 02:33:57;;;;;;;3.58;1.85;;;16.40;91.50;;;;;;5090393;28;20052;-86
2022/07/06 02:36:23;;;;;;;5.85;2.40;;;16.40;91.60;;;;;;5090280;28;20066;-85
2022/07/06 02:38:49;;;;;;;3.92;1.83;;;16.40;91.70;;;;;;5090421;28;20119;-85
2022/07/06 02:41:15;;;;;;;7.22;2.45;;;16.40;91.70;;;;;;5090257;28;20031;-85
2022/07/06 02:43:41;;;;;;;6.40;1.73;;;16.40;91.70;;;;;;5091472;28;20483;-85
2022/07/06 02:46:07;;;;;;;5.45;2.20;;;16.40;91.80;;;;;;5091451;28;20024;-85
2022/07/06 02:48:34;;;;;;;5.18;1.80;;;16.40;91.80;;;;;;5073200;28;20032;-85
2022/07/06 02:51:00;;;;;;;7.63;2.08;;;16.40;91.80;;;;;;5073209;28;20031;-84
2022/07/06 02:53:27;;;;;;;5.72;2.10;;;16.40;91.90;;;;;;5090169;28;20428;-85
2022/07/06 02:55:54;;;;;;;3.97;2.00;;;16.30;91.90;;;;;;5073643;28;20028;-85
2022/07/06 02:58:20;;;;;;;5.38;1.92;;;16.30;92.00;;;;;;5073529;28;20028;-86
2022/07/06 03:00:50;;;;;;;4.53;2.00;;;16.30;92.10;;;;;;5072924;28;20036;-87
2022/07/06 03:03:19;;;;;;;5.00;2.22;;;16.20;92.20;;;;;;5073980;28;20032;-85
2022/07/06 03:05:46;;;;;;;5.25;1.88;;;16.20;92.30;;;;;;5073164;28;20028;-86
2022/07/06 03:08:13;;;;;;;7.07;2.00;;;16.10;92.40;;;;;;5090086;28;20028;-85
2022/07/06 03:10:40;;;;;;;5.43;2.33;;;16.10;92.50;;;;;;5073144;28;20378;-86
2022/07/06 03:13:06;;;;;;;3.75;1.95;;;16.10;92.50;;;;;;5089847;28;20020;-85
2022/07/06 03:15:33;;;;;;;5.57;1.88;;;16.20;92.50;;;;;;5073128;28;20533;-85
2022/07/06 03:17:59;;;;;;;5.65;2.25;;;16.10;92.60;;;;;;5089585;28;20026;-86
2022/07/06 03:20:26;;;;;;;5.07;2.30;;;16.10;92.60;;;;;;5072844;28;20117;-85
2022/07/06 03:22:51;;;;;;;5.72;2.10;;;16.10;92.60;;;;;;5089732;28;20060;-85
2022/07/06 03:25:18;;;;;;;5.32;2.55;;;16.10;92.60;;;;;;5089696;28;20032;-85
2022/07/06 03:27:44;;;;;;;6.25;3.00;;;16.10;92.60;;;;;;5089492;28;20115;-85
2022/07/06 03:30:13;;;;;;;4.75;2.50;;;16.00;92.70;;;;;;5077867;22;20451;-64
2022/07/06 03:32:40;;;;;;;5.57;2.40;;;16.00;92.70;;;;;;5055463;28;20114;-63
2022/07/06 03:35:07;;;;;;;6.82;2.67;;;15.90;92.90;;;;;;5052982;28;20407;-63
2022/07/06 03:37:33;;;;;;;6.72;2.90;;;15.90;92.80;;;;;;5046889;28;20020;-63
2022/07/06 03:39:59;;;;;;;6.70;3.22;;;15.80;93.00;;;;;;5017189;28;20048;-68
2022/07/06 03:42:25;;;;;;;9.32;2.90;;;15.80;93.10;;;;;;5029927;28;20478;-68
2022/07/06 03:44:51;;;;;;;5.32;3.15;;;15.80;93.10;;;;;;5012297;28;20394;-64
2022/07/06 03:47:17;;;;;;;8.23;2.85;;;15.80;93.20;;;;;;5011923;28;20029;-64
2022/07/06 03:49:44;;;;;;;6.97;2.60;;;15.80;93.20;;;;;;5012499;28;20387;-64
2022/07/06 03:52:10;;;;;;;7.82;3.80;;;15.80;93.30;;;;;;5029688;28;20113;-63
2022/07/06 03:54:42;;;;;;;7.07;2.90;;;15.70;93.40;;;;;;5012865;28;20109;-63
2022/07/06 03:57:11;;;;;;;6.93;3.15;;;15.80;93.50;;;;;;5028461;28;20049;-66
2022/07/06 03:59:37;;;;;;;5.05;2.65;;;15.70;93.50;;;;;;5012112;28;20075;-64
2022/07/06 04:02:03;;;;;;;5.15;2.90;;;15.70;93.60;;;;;;5024871;28;20462;-63
2022/07/06 04:04:29;;;;;;;8.32;2.92;;;15.80;93.50;;;;;;5032175;28;20043;-63
2022/07/06 04:06:55;;;;;;;5.88;3.13;;;15.80;93.50;;;;;;5031380;28;20115;-64
2022/07/06 04:09:21;;;;;;;5.20;2.75;;;15.80;93.50;;;;;;5048300;28;20136;-63
2022/07/06 04:11:48;;;;;;;7.60;2.90;;;15.80;93.50;;;;;;5031455;28;20033;-63
2022/07/06 04:14:14;;;;;;;6.80;3.20;;;15.80;93.60;;;;;;5052575;28;20116;-63
2022/07/06 04:16:39;;;;;;;4.13;2.58;;;15.80;93.70;;;;;;5035374;28;20154;-64
2022/07/06 04:19:06;;;;;;;5.15;2.50;;;15.80;93.70;;;;;;5035731;28;20028;-64
2022/07/06 04:21:34;;;;;;;8.65;3.00;;;15.70;93.80;;;;;;5035177;28;20412;-63
2022/07/06 04:24:00;;;;;;;5.82;2.50;;;15.70;93.90;;;;;;5053654;28;20121;-63
2022/07/06 04:26:27;;;;;;;5.53;2.47;;;15.70;94.00;;;;;;5035306;28;20033;-63
2022/07/06 04:28:54;;;;;;;6.63;3.55;;;15.70;94.00;;;;;;5035454;28;20032;-62
2022/07/06 04:31:20;;;;;;;9.18;4.22;;;15.70;93.90;;;;;;5034930;28;20159;-63
2022/07/06 04:33:49;;;;;;;8.30;2.85;;;15.80;93.90;;;;;;5035441;28;20029;-64
2022/07/06 04:36:14;;;;;;;8.15;3.00;;;15.80;93.80;;;;;;5034758;28;20179;-63
2022/07/06 04:38:43;;;;;;;8.43;3.63;;;15.90;93.90;;;;;;5035221;28;20051;-67
2022/07/06 04:41:10;;;;;;;9.07;3.05;;;15.90;93.70;;;;;;5052983;28;20557;-65
2022/07/06 04:43:39;;;;;;;8.32;3.08;;;15.90;93.70;;;;;;5082381;22;20027;-90
2022/07/06 04:46:25;;;;;;;6.47;2.88;;;16.00;93.80;;;;;;5030104;28;20141;-84
2022/07/06 04:48:55;;;;;;;9.73;3.70;;;16.00;93.70;;;;;;5081841;28;20040;-86
2022/07/06 04:51:26;;;;;;;5.18;3.15;;;16.00;93.60;;;;;;5078258;28;20036;-86
2022/07/06 04:53:52;;;;;;;11.52;5.45;;;16.00;93.80;;;;;;5094096;28;20671;-86
2022/07/06 04:56:19;;;;;;;8.98;4.65;;;16.00;93.80;;;;;;5094882;28;20035;-82
2022/07/06 04:58:45;;;;;;;8.77;3.45;;;16.00;93.70;;;;;;5077718;28;20024;-85
2022/07/06 05:01:14;;;;;;;11.07;4.05;;;16.10;93.80;;;;;;5094320;28;20056;-81
2022/07/06 05:03:40;;;;;;;9.88;2.95;;;16.10;93.60;;;;;;5077081;28;20101;-87
2022/07/06 05:06:08;;;;;;;8.82;3.20;;;16.10;93.50;;;;;;5095113;28;20051;-86
2022/07/06 05:08:34;;;;;;;5.50;3.10;;;16.10;93.60;;;;;;5093758;28;20031;-84
2022/07/06 05:11:00;;;;;;;6.72;2.50;;;16.20;93.60;;;;;;5113152;28;20169;-87
2022/07/06 05:13:26;;;;;;;6.70;2.90;;;16.20;93.60;;;;;;5094535;28;20110;-86
2022/07/06 05:15:52;;;;;;;9.02;3.03;;;16.20;93.50;;;;;;5077452;28;20387;-83
2022/07/06 05:18:21;;;;;;;10.25;3.30;;;16.30;93.50;;;;;;5093894;28;20096;-88
2022/07/06 05:20:48;;;;;;;7.22;3.20;;;16.30;93.40;;;;;;5095775;28;20028;-82
2022/07/06 05:23:14;;;;;;;6.57;3.00;;;16.30;93.30;;;;;;5093311;28;20020;-84
2022/07/06 05:25:40;;;;;;;10.82;4.90;;;16.30;93.50;;;;;;5093690;28;20046;-84
2022/07/06 05:28:06;;;;;;;8.02;3.97;;;16.20;93.40;;;;;;5112451;28;20054;-84
2022/07/06 05:30:32;;;;;;;9.75;3.97;;;16.30;93.40;;;;;;5093861;28;20035;-84
2022/07/06 05:32:58;;;;;;;7.75;3.10;;;16.30;93.40;;;;;;5093389;28;20081;-84
2022/07/06 05:35:23;;;;;;;5.10;2.45;;;16.40;93.40;;;;;;5094101;28;20612;-84
2022/07/06 05:37:50;;;;;;;9.30;2.75;;;16.40;93.50;;;;;;5076749;28;20058;-84
2022/07/06 05:40:16;;;;;;;9.23;3.55;;;16.40;93.50;;;;;;5094331;28;20118;-84
2022/07/06 05:42:42;;;;;;;7.55;2.97;;;16.40;93.50;;;;;;5093290;28;20389;-84
2022/07/06 05:45:08;;;;;;;7.38;3.97;;;16.40;93.30;;;;;;5076929;28;20081;-84
2022/07/06 05:50:19;;;;;;;8.10;3.30;;;16.50;93.20;;;;;;5093615;28;20031;-84
2022/07/06 05:52:58;;;;;;;10.15;3.25;;;16.50;93.10;;;;;;5093180;28;20062;-84
2022/07/06 05:55:24;;;;;;;7.45;3.10;;;16.60;93.00;;;;;;5093534;28;20038;-83
2022/07/06 05:57:51;;;;;;;7.65;2.10;;;16.60;93.00;;;;;;5092814;28;20698;-83
2022/07/06 06:00:17;;;;;;;10.25;3.33;;;16.60;92.90;;;;;;5076905;28;20099;-83
2022/07/06 06:02:48;;;;;;;7.18;2.90;;;16.70;93.40;;;;;;5098795;28;20456;-83
2022/07/06 06:05:17;;;;;;;4.47;2.42;;;16.70;93.70;;;;;;5093772;28;20057;-88
2022/07/06 06:07:56;;;;;;;7.45;2.70;;;16.80;93.30;;;;;;5092893;28;20043;-92
2022/07/06 06:10:25;;;;;;;6.85;2.38;;;16.90;93.00;;;;;;5077461;28;20057;-90
2022/07/06 06:12:54;;;;;;;5.55;2.42;;;16.90;92.80;;;;;;5091647;28;20045;-83
2022/07/06 06:15:19;;;;;;;7.97;2.05;;;17.00;92.60;;;;;;5094125;28;20023;-84
2022/07/06 06:18:19;;;;;;;9.23;4.20;;;17.10;92.40;;;;;;5111741;28;20489;-88
2022/07/06 06:20:46;;;;;;;7.60;3.10;;;17.10;92.20;;;;;;5111719;28;20032;-84
2022/07/06 06:23:11;;;;;;;6.10;2.72;;;17.20;91.80;;;;;;5110986;28;20507;-87
2022/07/06 06:25:38;;;;;;;8.00;2.75;;;17.20;92.30;;;;;;5111947;28;20066;-86
2022/07/06 06:28:07;;;;;;;7.88;2.33;;;17.20;92.10;;;;;;5111752;28;20032;-82
2022/07/06 06:30:33;;;;;;;6.18;2.20;;;17.20;92.60;;;;;;5111276;28;20059;-79
2022/07/06 06:33:28;;;;;;;6.15;1.83;;;17.20;92.40;;;;;;5110932;28;20028;-82
2022/07/06 06:36:02;;;;;;;6.13;1.77;;;17.20;91.90;;;;;;5094253;28;20043;-87
2022/07/06 06:38:29;;;;;;;7.25;1.90;;;17.20;91.70;;;;;;5092572;28;20118;-84
2022/07/06 06:40:55;;;;;;;8.50;3.78;;;17.20;91.90;;;;;;5093213;28;20030;-85
2022/07/06 06:43:21;;;;;;;6.47;2.75;;;17.20;91.60;;;;;;5093054;28;20198;-85
2022/07/06 06:46:16;;;;;;;4.65;2.00;;;17.20;91.50;;;;;;5084295;28;20457;-85
2022/07/06 06:54:51;;;;;;;6.80;1.95;;;17.20;91.80;;;;;;5029065;28;20124;-66
2022/07/06 06:57:17;;;;;;;5.28;1.50;;;17.20;91.70;;;;;;5030315;28;20096;-66
2022/07/06 06:59:43;;;;;;;4.97;1.92;;;17.20;91.60;;;;;;5030223;28;20071;-67
2022/07/06 07:02:08;;;;;;;8.30;2.00;;;17.30;91.40;;;;;;5030152;28;20044;-67
2022/07/06 07:04:34;;;;;;;6.18;1.65;;;17.30;91.50;;;;;;5030105;28;20064;-68
2022/07/06 07:07:00;;;;;;;6.90;1.73;;;17.40;91.40;;;;;;5029750;28;20641;-67
2022/07/06 07:09:26;;;;;;;6.53;1.60;;;17.40;91.20;;;;;;5041474;28;20033;-67
2022/07/06 07:11:52;;;;;;;8.45;1.60;;;17.50;91.20;;;;;;5049672;28;20082;-67
2022/07/06 07:14:18;;;;;;;6.88;1.63;;;17.50;91.20;;;;;;5050085;28;20039;-67
2022/07/06 07:16:44;;;;;;;6.07;1.30;;;17.50;90.80;;;;;;5049673;28;20025;-67
2022/07/06 07:19:10;;;;;;;3.50;0.95;;;17.50;90.90;;;;;;5049577;28;20081;-67
2022/07/06 07:21:36;;;;;;;5.10;1.23;;;17.60;90.30;;;;;;5049929;28;20037;-67
2022/07/06 07:24:02;;;;;;;4.47;1.00;;;17.70;90.00;;;;;;5048092;28;20053;-66
2022/07/06 07:26:28;;;;;;;4.40;1.20;;;17.60;90.10;;;;;;5049827;28;20028;-66
2022/07/06 07:28:54;;;;;;;3.53;0.90;;;17.60;90.00;;;;;;5049774;28;20385;-67
2022/07/06 07:31:20;;;;;;;3.67;1.00;;;17.60;90.00;;;;;;5049683;28;20058;-67
2022/07/06 07:33:46;;;;;;;3.28;0.88;;;17.60;90.10;;;;;;5049287;28;20039;-66
2022/07/06 07:36:12;;;;;;;5.32;1.30;;;17.60;90.40;;;;;;5049256;28;20400;-67
2022/07/06 07:38:38;;;;;;;5.10;1.20;;;17.60;90.40;;;;;;5049092;28;20166;-67
2022/07/06 07:41:05;;;;;;;4.32;1.30;;;17.60;90.50;;;;;;5049572;28;20135;-67
2022/07/06 07:43:32;;;;;;;7.60;1.20;;;17.60;90.90;;;;;;5050039;28;20547;-67
2022/07/06 07:45:57;;;;;;;4.07;1.13;;;17.60;91.00;;;;;;5048242;28;20067;-67
2022/07/06 07:48:23;;;;;;;4.05;1.00;;;17.70;91.00;;;;;;5052422;28;20064;-67
2022/07/06 07:50:49;;;;;;;5.80;0.90;;;17.70;90.60;;;;;;5053567;28;20504;-67
2022/07/06 07:53:15;;;;;;;4.45;1.00;;;17.70;90.80;;;;;;5053305;28;20068;-67
2022/07/06 07:55:41;;;;;;;3.10;0.77;;;17.80;90.30;;;;;;5053654;28;20025;-68
2022/07/06 07:58:07;;;;;;;7.60;3.10;;;17.80;89.70;;;;;;5053532;28;20158;-66
2022/07/06 08:00:33;;;;;;;6.72;2.17;;;17.80;88.40;;;;;;5040676;28;20064;-67
2022/07/06 08:03:00;;;;;;;5.45;2.63;;;17.80;89.20;;;;;;5031258;28;20053;-67
2022/07/06 08:05:26;;;;;;;5.97;1.50;;;17.80;89.60;;;;;;5032150;28;20102;-67
2022/07/06 08:07:52;;;;;;;3.83;1.20;;;17.80;89.40;;;;;;5031544;28;20022;-67
2022/07/06 08:10:19;;;;;;;4.28;1.35;;;17.80;88.70;;;;;;5031911;28;20032;-67
2022/07/06 08:12:45;;;;;;;4.75;1.30;;;17.80;89.00;;;;;;5032484;28;20112;-66
2022/07/06 08:15:11;;;;;;;5.15;1.05;;;17.80;89.00;;;;;;5032478;28;20452;-67
2022/07/06 08:17:39;;;;;;;4.85;1.60;;;17.80;89.30;;;;;;5032904;28;20039;-67
2022/07/06 08:20:05;;;;;;;6.28;1.60;;;17.80;88.50;;;;;;5033269;28;20437;-67
2022/07/06 08:22:31;;;;;;;6.35;1.75;;;17.80;88.10;;;;;;5032850;28;20132;-67
2022/07/06 08:24:57;;;;;;;3.83;1.05;;;17.80;86.90;;;;;;5033347;28;20455;-67
2022/07/06 08:27:24;;;;;;;4.45;0.93;;;17.90;86.80;;;;;;5032790;28;20036;-67
2022/07/06 08:29:50;;;;;;;3.47;1.02;;;18.00;86.10;;;;;;5032842;28;20167;-67
2022/07/06 08:32:15;;;;;;;3.40;0.93;;;18.10;88.60;;;;;;5029279;28;20049;-67
2022/07/06 08:34:44;;;;;;;5.22;1.08;;;18.10;87.40;;;;;;5031783;28;20033;-67
2022/07/06 08:37:09;;;;;;;3.57;1.10;;;18.10;86.50;;;;;;5030126;28;20099;-68
2022/07/06 08:39:35;;;;;;;4.97;0.93;;;18.10;87.10;;;;;;5031132;28;20752;-67
2022/07/06 08:42:02;;;;;;;3.72;1.30;;;18.10;87.20;;;;;;5031108;28;20048;-68
2022/07/06 08:44:29;;;;;;;4.78;2.22;;;18.00;86.80;;;;;;5031365;28;20745;-67
2022/07/06 08:46:58;;;;;;;5.70;1.98;;;18.00;87.10;;;;;;5031406;28;20033;-67
2022/07/06 08:49:25;;;;;;;;;;;18.00;85.70;;;;;;5030366;28;20037;-67
2022/07/06 08:51:52;;;;;;;3.30;0.98;;;18.00;86.30;;;;;;5030642;28;19917;-67
2022/07/06 08:54:21;;;;;;;4.90;1.98;;;18.00;86.80;;;;;;5031704;28;20048;-67
2022/07/06 08:56:47;;;;;;;2.80;1.10;;;18.00;87.20;;;;;;5029793;28;20033;-67
2022/07/06 08:59:14;;;;;;;5.00;0.90;;;18.00;87.40;;;;;;5030605;28;20041;-67
2022/07/06 09:01:39;;;;;;;2.80;1.40;;;18.00;85.90;;;;;;5031691;28;20034;-67
2022/07/06 09:04:07;;;;;;;5.30;1.10;;;18.00;85.40;;;;;;5031751;28;20104;-67
2022/07/06 09:06:33;;;;;;;6.13;1.02;;;18.00;86.60;;;;;;5032341;28;20029;-67
2022/07/06 09:09:04;;;;;;;4.63;1.20;;;18.10;83.40;;;;;;5031812;28;20025;-67
2022/07/06 09:11:31;;;;;;;7.78;2.30;;;18.20;83.30;;;;;;5032260;28;20033;-67
2022/07/06 09:13:57;;;;;;;4.30;1.20;;;18.20;83.70;;;;;;5031336;28;20033;-67
2022/07/06 09:16:28;;;;;;;4.78;0.93;;;18.20;83.70;;;;;;5031007;28;20172;-68
2022/07/06 09:18:54;;;;;;;9.63;1.75;;;18.20;83.60;;;;;;5031903;28;20037;-66
2022/07/06 09:21:26;;;;;;;4.28;1.73;;;18.20;83.70;;;;;;5032184;28;20033;-67
2022/07/06 09:23:56;;;;;;;4.22;1.27;;;18.20;84.50;;;;;;5031453;28;20033;-67
2022/07/06 09:26:23;;;;;;;2.65;1.10;;;18.20;83.80;;;;;;5031182;28;20516;-68
2022/07/06 09:28:49;;;;;;;3.53;1.40;;;18.20;83.70;;;;;;5029893;28;20065;-67
2022/07/06 09:31:15;;;;;;;5.95;1.63;;;18.10;83.80;;;;;;5030056;28;20053;-67
2022/07/06 09:34:19;;;;;;;5.60;1.35;;;18.20;84.00;;;;;;5029937;28;20036;-68
2022/07/06 09:36:50;;;;;;;2.75;1.27;;;18.10;82.00;;;;;;4987930;28;20842;-67
2022/07/06 09:39:27;;;;;;;2.97;0.80;;;18.10;82.50;;;;;;4988017;28;20062;-68
2022/07/06 09:41:54;;;;;;;5.75;1.20;;;18.00;82.20;;;;;;5012479;28;20049;-67
2022/07/06 09:44:28;;;;;;;4.60;0.90;;;18.10;80.10;;;;;;5030617;28;20087;-68
2022/07/06 09:47:01;;;;;;;5.07;1.02;;;18.10;78.60;;;;;;5031152;28;20068;-68
2022/07/06 09:49:27;;;;;;;6.68;1.40;;;18.10;80.70;;;;;;5030968;28;20481;-67
2022/07/06 09:51:57;;;;;;;11.73;1.67;;;18.20;79.70;;;;;;5030466;28;20033;-68
2022/07/06 09:54:23;;;;;;;16.60;1.90;;;18.30;77.50;;;;;;5031126;28;20068;-68
2022/07/06 09:56:51;;;;;;;4.07;0.77;;;18.40;78.20;;;;;;5030733;28;20121;-68
2022/07/06 09:59:22;;;;;;;4.35;1.05;;;18.50;78.70;;;;;;5030992;28;20032;-68
2022/07/06 10:01:52;;;;;;;4.63;1.30;;;18.50;78.90;;;;;;5030788;28;20113;-68
2022/07/06 10:04:20;;;;;;;4.68;0.90;;;18.50;78.40;;;;;;5031325;28;20061;-67
2022/07/06 10:06:46;;;;;;;5.47;0.80;;;18.50;78.30;;;;;;5030886;28;20041;-68
2022/07/06 10:09:13;;;;;;;3.35;1.08;;;18.50;78.40;;;;;;5030380;28;20367;-68
2022/07/06 10:11:43;;;;;;;4.68;1.30;;;18.50;78.40;;;;;;5028342;28;20030;-67
2022/07/06 10:14:11;;;;;;;1.33;0.50;;;18.50;76.40;;;;;;5030967;28;20029;-68
2022/07/06 10:16:38;;;;;;;2.00;0.70;;;18.60;75.90;;;;;;5030540;28;20076;-67
2022/07/06 10:19:08;;;;;;;1.08;0.50;;;18.70;74.90;;;;;;5030699;28;20026;-68
2022/07/06 10:21:37;;;;;;;2.58;0.93;;;18.80;74.90;;;;;;5030832;28;20044;-67
2022/07/06 10:24:08;;;;;;;3.28;0.80;;;18.90;73.90;;;;;;5028618;28;20501;-67
2022/07/06 10:26:35;;;;;;;8.25;1.20;;;18.90;74.20;;;;;;5030567;28;20124;-67
2022/07/06 10:29:06;;;;;;;3.40;0.88;;;19.00;74.80;;;;;;5030676;28;20057;-67
2022/07/06 10:31:34;;;;;;;1.67;0.50;;;19.00;74.20;;;;;;5030852;28;20022;-67
2022/07/06 10:34:06;;;;;;;4.30;0.83;;;19.00;74.40;;;;;;5030793;28;20030;-67
2022/07/06 10:36:37;;;;;;;2.53;0.90;;;19.10;75.10;;;;;;5030572;28;20370;-67
2022/07/06 10:41:02;;;;;;;5.13;1.15;;;19.10;75.50;;;;;;5029982;28;20036;-67
2022/07/06 10:41:49;;;;;;;7.53;2.70;;;19.10;77.00;;;;;;5030388;28;20101;-67
2022/07/06 10:44:18;;;;;;;5.03;1.65;;;19.10;77.40;;;;;;5065464;22;20531;-69
2022/07/06 10:46:52;;;;;;;3.35;1.17;;;19.20;76.80;;;;;;5070169;28;20032;-69
2022/07/06 10:49:18;;;;;;;3.13;1.00;;;19.30;76.20;;;;;;5084506;28;20024;-69
2022/07/06 10:51:44;;;;;;;2.78;0.80;;;19.30;76.10;;;;;;5090053;28;20029;-69
2022/07/06 10:54:10;;;;;;;2.47;0.80;;;19.30;75.60;;;;;;5088850;28;20480;-69
2022/07/06 10:56:42;;;;;;;2.88;0.70;;;19.40;77.10;;;;;;5090341;28;20020;-68
2022/07/06 10:59:18;;;;;;;3.33;0.98;;;19.40;75.50;;;;;;5090238;28;20024;-69
2022/07/06 11:02:16;;;;;;;2.63;1.10;;;19.40;75.50;;;;;;5090402;28;20074;-69
2022/07/06 11:04:44;;;;;;;3.90;1.20;;;19.40;74.70;;;;;;5090500;28;20028;-68
2022/07/06 11:07:12;;;;;;;6.47;0.70;;;19.50;74.10;;;;;;5078851;28;20354;-69
2022/07/06 11:09:42;;;;;;;3.90;0.80;;;19.50;75.10;;;;;;5069924;28;20081;-69
2022/07/06 11:12:15;;;;;;;7.80;0.90;;;19.50;75.30;;;;;;5069816;28;20040;-68
2022/07/06 11:14:41;;;;;;;3.13;0.90;;;19.50;74.40;;;;;;5069375;28;20029;-67
2022/07/06 11:17:10;;;;;;;2.25;0.80;;;19.50;73.90;;;;;;5069945;28;20372;-68
2022/07/06 11:19:36;;;;;;;2.38;0.80;;;19.50;74.20;;;;;;5069783;28;20029;-69
2022/07/06 11:22:09;;;;;;;1.80;0.77;;;19.50;74.60;;;;;;5069229;28;20581;-68
2022/07/06 11:24:40;;;;;;;1.48;0.70;;;19.50;74.80;;;;;;5069966;28;20485;-68
2022/07/06 11:27:07;;;;;;;2.35;0.80;;;19.50;75.10;;;;;;5067961;28;20036;-67
2022/07/06 11:29:39;;;;;;;3.65;1.08;;;19.60;74.80;;;;;;5069933;28;20152;-68
2022/07/06 11:32:09;;;;;;;4.03;0.98;;;19.60;74.50;;;;;;5069718;28;20031;-68
2022/07/06 11:34:38;;;;;;;4.45;0.88;;;19.70;75.00;;;;;;5070155;28;20066;-68
2022/07/06 11:37:08;;;;;;;2.78;0.65;;;19.80;74.30;;;;;;5069063;28;20115;-68
2022/07/06 11:39:36;;;;;;;1.70;0.60;;;19.80;74.20;;;;;;5069412;28;20023;-69
2022/07/06 11:42:06;;;;;;;4.77;0.70;;;19.80;75.60;;;;;;5069638;28;20447;-69
2022/07/06 11:44:33;;;;;;;2.85;0.77;;;19.80;74.90;;;;;;5069759;28;20282;-68
2022/07/06 11:47:02;;;;;;;2.45;0.75;;;19.80;74.80;;;;;;5069520;28;20055;-68
2022/07/06 11:49:28;;;;;;;2.97;0.70;;;19.80;75.10;;;;;;5068283;28;20040;-68
2022/07/06 11:51:54;;;;;;;2.33;0.98;;;19.70;75.70;;;;;;5069140;28;20029;-68
2022/07/06 11:54:21;;;;;;;5.43;2.55;;;19.80;76.70;;;;;;5069623;28;20032;-68
2022/07/06 11:56:59;;;;;;;4.10;1.40;;;19.80;76.70;;;;;;5069515;28;20024;-69
2022/07/06 11:59:37;;;;;;;3.65;1.08;;;19.80;76.70;;;;;;5069447;28;20017;-69
2022/07/06 12:02:05;;;;;;;2.13;1.02;;;19.80;75.80;;;;;;5069748;28;20032;-67
2022/07/06 12:04:33;;;;;;;3.20;1.25;;;19.80;75.50;;;;;;5069593;28;20048;-68
2022/07/06 12:07:05;;;;;;;3.05;0.93;;;19.80;75.70;;;;;;5069301;28;20119;-69
2022/07/06 12:09:32;;;;;;;1.98;0.82;;;19.80;75.10;;;;;;5068829;28;20040;-68
2022/07/06 12:11:58;;;;;;;1.98;1.15;;;19.70;75.20;;;;;;5070028;28;20107;-68
2022/07/06 12:14:23;;;;;;;3.08;0.90;;;19.80;74.90;;;;;;5069637;28;20051;-68
2022/07/06 12:16:50;;;;;;;12.75;1.85;;;19.80;74.30;;;;;;5068984;28;20365;-68
2022/07/06 12:19:17;;;;;;;2.95;1.20;;;19.80;73.90;;;;;;5068756;28;20171;-68
2022/07/06 12:21:45;;;;;;;3.20;0.95;;;19.90;73.50;;;;;;5067924;28;20159;-68
2022/07/06 12:24:23;;;;;;;4.78;0.93;;;19.90;73.70;;;;;;5068818;28;20112;-68
2022/07/06 12:26:52;;;;;;;3.67;0.90;;;20.00;73.20;;;;;;5069069;28;20499;-68
2022/07/06 12:29:19;;;;;;;1.90;0.88;;;20.00;73.40;;;;;;5068980;28;20043;-68
2022/07/06 12:31:56;;;;;;;2.40;0.90;;;20.00;73.80;;;;;;5068718;28;20033;-68
2022/07/06 12:34:23;;;;;;;3.38;1.30;;;20.10;73.40;;;;;;5070427;28;20020;-68
2022/07/06 12:36:54;;;;;;;4.78;1.58;;;20.10;72.90;;;;;;5072769;28;20028;-68
2022/07/06 12:39:22;;;;;;;5.28;1.83;;;20.20;74.40;;;;;;5072697;28;20397;-68
2022/07/06 12:41:51;;;;;;;3.20;0.93;;;20.20;73.30;;;;;;5072651;28;20112;-68
2022/07/06 12:44:22;;;;;;;7.55;2.65;;;20.20;72.90;;;;;;5072616;28;20037;-68
2022/07/06 12:46:49;;;;;;;2.97;1.35;;;20.30;73.10;;;;;;5072669;28;20043;-68
2022/07/06 12:49:23;;;;;;;2.67;1.05;;;20.30;73.00;;;;;;5072827;28;20089;-68
2022/07/06 12:51:52;;;;;;;2.25;0.93;;;20.40;71.80;;;;;;5072181;28;20044;-68
2022/07/06 12:54:19;;;;;;;7.05;3.25;;;20.50;71.80;;;;;;5072324;28;20036;-68
2022/07/06 12:57:06;;;;;;;3.15;1.23;;;20.50;72.10;;;;;;5072705;28;20028;-68
2022/07/06 12:59:37;;;;;;;5.18;1.50;;;20.60;71.80;;;;;;5072312;28;20119;-68
2022/07/06 13:02:05;;;;;;;6.30;1.10;;;20.80;71.40;;;;;;5072239;28;20063;-68